sensor_id;sensor_type;location;lat;lon;timestamp;pressure;altitude;pressure_sealevel;temperature;humidity
33795;BME280;51430;52.242;21.118;2023-01-30T00:01:15;100048.03;;;1.90;97.07
33795;BME280;51430;52.242;21.118;2023-01-30T00:04:00;100048.77;;;1.93;96.83
33795;BME280;51430;52.242;21.118;2023-01-30T00:06:46;100042.04;;;1.97;96.51
33795;BME280;51430;52.242;21.118;2023-01-30T00:09:31;100036.44;;;2.00;96.43
33795;BME280;51430;52.242;21.118;2023-01-30T00:12:16;100029.77;;;1.98;96.38
33795;BME280;51430;52.242;21.118;2023-01-30T00:15:01;100026.86;;;1.99;96.24
33795;BME280;51430;52.242;21.118;2023-01-30T00:17:47;100020.83;;;1.99;96.43
33795;BME280;51430;52.242;21.118;2023-01-30T00:20:33;100009.46;;;2.03;96.42
33795;BME280;51430;52.242;21.118;2023-01-30T00:23:18;100006.59;;;2.09;96.24
33795;BME280;51430;52.242;21.118;2023-01-30T00:26:25;100002.15;;;2.16;95.76
33795;BME280;51430;52.242;21.118;2023-01-30T00:29:12;99996.13;;;2.05;95.49
33795;BME280;51430;52.242;21.118;2023-01-30T00:31:58;99987.55;;;2.09;95.66
33795;BME280;51430;52.242;21.118;2023-01-30T00:34:45;99978.20;;;2.10;95.61
33795;BME280;51430;52.242;21.118;2023-01-30T00:37:32;99978.43;;;2.12;95.37
33795;BME280;51430;52.242;21.118;2023-01-30T00:40:19;99972.63;;;2.04;95.55
33795;BME280;51430;52.242;21.118;2023-01-30T00:43:06;99963.46;;;2.13;95.47
33795;BME280;51430;52.242;21.118;2023-01-30T00:46:25;99950.62;;;2.12;95.20
33795;BME280;51430;52.242;21.118;2023-01-30T00:49:32;99942.14;;;2.06;95.56
33795;BME280;51430;52.242;21.118;2023-01-30T00:52:18;99939.23;;;2.01;96.08
33795;BME280;51430;52.242;21.118;2023-01-30T00:55:06;99938.50;;;1.99;96.44
33795;BME280;51430;52.242;21.118;2023-01-30T00:57:52;99926.98;;;1.92;96.97
33795;BME280;51430;52.242;21.118;2023-01-30T01:00:39;99920.66;;;1.87;97.51
33795;BME280;51430;52.242;21.118;2023-01-30T01:03:34;99908.14;;;1.94;97.69
33795;BME280;51430;52.242;21.118;2023-01-30T01:07:30;99898.06;;;1.89;97.83
33795;BME280;51430;52.242;21.118;2023-01-30T01:10:17;99901.27;;;1.83;97.80
33795;BME280;51430;52.242;21.118;2023-01-30T01:13:03;99891.98;;;1.84;97.83
33795;BME280;51430;52.242;21.118;2023-01-30T01:16:04;99882.88;;;1.91;97.77
33795;BME280;51430;52.242;21.118;2023-01-30T01:18:52;99876.54;;;1.87;97.57
33795;BME280;51430;52.242;21.118;2023-01-30T01:21:49;99865.51;;;1.94;97.47
33795;BME280;51430;52.242;21.118;2023-01-30T01:24:36;99850.30;;;1.86;97.74
33795;BME280;51430;52.242;21.118;2023-01-30T01:27:23;99849.08;;;1.90;97.70
33795;BME280;51430;52.242;21.118;2023-01-30T01:30:11;99839.73;;;1.88;97.45
33795;BME280;51430;52.242;21.118;2023-01-30T01:32:57;99827.17;;;1.91;97.09
33795;BME280;51430;52.242;21.118;2023-01-30T01:35:44;99816.14;;;1.95;96.97
33795;BME280;51430;52.242;21.118;2023-01-30T01:38:33;99816.89;;;2.01;96.62
33795;BME280;51430;52.242;21.118;2023-01-30T01:41:19;99802.23;;;2.05;96.22
33795;BME280;51430;52.242;21.118;2023-01-30T01:46:05;99793.73;;;2.10;95.46
33795;BME280;51430;52.242;21.118;2023-01-30T01:50:24;99792.50;;;2.07;95.40
33795;BME280;51430;52.242;21.118;2023-01-30T01:53:44;99784.45;;;2.00;95.51
33795;BME280;51430;52.242;21.118;2023-01-30T01:57:48;99768.95;;;1.94;95.61
33795;BME280;51430;52.242;21.118;2023-01-30T02:02:08;99774.67;;;2.10;95.58
33795;BME280;51430;52.242;21.118;2023-01-30T02:05:50;99760.02;;;2.14;95.14
33795;BME280;51430;52.242;21.118;2023-01-30T02:08:58;99756.84;;;2.13;94.71
33795;BME280;51430;52.242;21.118;2023-01-30T02:12:59;99751.59;;;2.08;94.62
33795;BME280;51430;52.242;21.118;2023-01-30T02:16:58;99747.52;;;2.03;94.49
33795;BME280;51430;52.242;21.118;2023-01-30T02:19:57;99745.83;;;1.99;94.27
33795;BME280;51430;52.242;21.118;2023-01-30T02:23:01;99737.56;;;2.03;94.30
33795;BME280;51430;52.242;21.118;2023-01-30T02:37:56;99710.73;;;2.00;93.87
33795;BME280;51430;52.242;21.118;2023-01-30T02:41:36;99712.47;;;1.99;93.77
33795;BME280;51430;52.242;21.118;2023-01-30T02:44:58;99703.43;;;1.95;93.89
33795;BME280;51430;52.242;21.118;2023-01-30T02:54:18;99678.83;;;1.79;93.76
33795;BME280;51430;52.242;21.118;2023-01-30T02:58:11;99674.71;;;1.78;93.31
33795;BME280;51430;52.242;21.118;2023-01-30T03:05:57;99670.70;;;1.80;92.51
33795;BME280;51430;52.242;21.118;2023-01-30T03:14:20;99654.52;;;1.77;91.25
33795;BME280;51430;52.242;21.118;2023-01-30T03:18:18;99639.95;;;1.73;91.48
33795;BME280;51430;52.242;21.118;2023-01-30T03:22:16;99631.23;;;1.76;91.14
33795;BME280;51430;52.242;21.118;2023-01-30T03:26:33;99611.45;;;1.79;90.95
33795;BME280;51430;52.242;21.118;2023-01-30T03:30:32;99592.16;;;1.74;90.99
33795;BME280;51430;52.242;21.118;2023-01-30T03:34:30;99576.02;;;1.70;91.65
33795;BME280;51430;52.242;21.118;2023-01-30T03:37:16;99571.04;;;1.67;92.00
33795;BME280;51430;52.242;21.118;2023-01-30T03:40:04;99566.59;;;1.70;92.23
33795;BME280;51430;52.242;21.118;2023-01-30T03:42:50;99560.04;;;1.67;92.70
33795;BME280;51430;52.242;21.118;2023-01-30T03:45:37;99556.02;;;1.69;93.01
33795;BME280;51430;52.242;21.118;2023-01-30T03:48:24;99553.17;;;1.67;93.40
33795;BME280;51430;52.242;21.118;2023-01-30T03:51:14;99554.30;;;1.68;93.61
33795;BME280;51430;52.242;21.118;2023-01-30T03:54:01;99548.30;;;1.58;94.06
33795;BME280;51430;52.242;21.118;2023-01-30T03:56:47;99553.06;;;1.50;94.59
33795;BME280;51430;52.242;21.118;2023-01-30T03:59:34;99541.43;;;1.52;95.22
33795;BME280;51430;52.242;21.118;2023-01-30T04:02:22;99539.30;;;1.50;95.12
33795;BME280;51430;52.242;21.118;2023-01-30T04:05:11;99535.22;;;1.33;95.79
33795;BME280;51430;52.242;21.118;2023-01-30T04:07:58;99527.25;;;1.28;96.50
33795;BME280;51430;52.242;21.118;2023-01-30T04:10:46;99520.77;;;1.27;96.27
33795;BME280;51430;52.242;21.118;2023-01-30T04:13:33;99514.52;;;1.22;96.48
33795;BME280;51430;52.242;21.118;2023-01-30T04:16:22;99512.21;;;1.23;96.08
33795;BME280;51430;52.242;21.118;2023-01-30T04:19:09;99498.67;;;1.29;95.86
33795;BME280;51430;52.242;21.118;2023-01-30T04:21:56;99495.41;;;1.33;95.50
33795;BME280;51430;52.242;21.118;2023-01-30T04:24:42;99489.63;;;1.38;95.28
33795;BME280;51430;52.242;21.118;2023-01-30T04:27:29;99483.80;;;1.38;94.96
33795;BME280;51430;52.242;21.118;2023-01-30T04:30:16;99479.20;;;1.37;94.13
33795;BME280;51430;52.242;21.118;2023-01-30T04:33:03;99470.45;;;1.34;93.83
33795;BME280;51430;52.242;21.118;2023-01-30T04:35:54;99462.86;;;1.34;93.63
33795;BME280;51430;52.242;21.118;2023-01-30T04:38:42;99454.38;;;1.26;93.86
33795;BME280;51430;52.242;21.118;2023-01-30T04:41:28;99443.63;;;1.31;94.07
33795;BME280;51430;52.242;21.118;2023-01-30T04:44:17;99437.34;;;1.30;93.93
33795;BME280;51430;52.242;21.118;2023-01-30T04:47:04;99427.52;;;1.18;94.36
33795;BME280;51430;52.242;21.118;2023-01-30T04:49:50;99428.61;;;1.20;94.45
33795;BME280;51430;52.242;21.118;2023-01-30T04:52:37;99425.61;;;1.22;93.26
33795;BME280;51430;52.242;21.118;2023-01-30T04:56:08;99411.71;;;1.28;93.06
33795;BME280;51430;52.242;21.118;2023-01-30T05:00:03;99403.52;;;1.34;91.55
33795;BME280;51430;52.242;21.118;2023-01-30T05:04:02;99402.68;;;1.30;91.46
33795;BME280;51430;52.242;21.118;2023-01-30T05:07:59;99410.14;;;1.29;91.49
33795;BME280;51430;52.242;21.118;2023-01-30T05:11:56;99406.74;;;1.31;90.35
33795;BME280;51430;52.242;21.118;2023-01-30T05:15:53;99386.63;;;1.31;90.14
33795;BME280;51430;52.242;21.118;2023-01-30T05:18:39;99374.24;;;1.26;90.11
33795;BME280;51430;52.242;21.118;2023-01-30T05:21:28;99375.01;;;1.34;89.87
33795;BME280;51430;52.242;21.118;2023-01-30T05:24:33;99364.94;;;1.36;89.92
33795;BME280;51430;52.242;21.118;2023-01-30T05:27:19;99355.41;;;1.47;89.42
33795;BME280;51430;52.242;21.118;2023-01-30T05:32:39;99338.58;;;1.44;89.33
33795;BME280;51430;52.242;21.118;2023-01-30T05:36:36;99334.90;;;1.42;89.24
33795;BME280;51430;52.242;21.118;2023-01-30T05:40:37;99321.84;;;1.42;89.49
33795;BME280;51430;52.242;21.118;2023-01-30T05:44:11;99312.98;;;1.35;89.88
33795;BME280;51430;52.242;21.118;2023-01-30T05:48:13;99313.84;;;1.29;90.23
33795;BME280;51430;52.242;21.118;2023-01-30T05:52:12;99314.13;;;1.27;90.20
33795;BME280;51430;52.242;21.118;2023-01-30T05:56:10;99314.85;;;1.29;90.19
33795;BME280;51430;52.242;21.118;2023-01-30T06:10:36;99293.73;;;1.51;88.44
33795;BME280;51430;52.242;21.118;2023-01-30T06:13:45;99292.57;;;1.50;88.33
33795;BME280;51430;52.242;21.118;2023-01-30T06:17:42;99267.80;;;1.38;88.37
33795;BME280;51430;52.242;21.118;2023-01-30T06:21:08;99253.33;;;1.36;88.75
33795;BME280;51430;52.242;21.118;2023-01-30T06:24:26;99251.15;;;1.26;89.00
33795;BME280;51430;52.242;21.118;2023-01-30T06:28:24;99233.61;;;1.30;88.92
33795;BME280;51430;52.242;21.118;2023-01-30T06:31:12;99235.42;;;1.31;88.68
33795;BME280;51430;52.242;21.118;2023-01-30T06:33:59;99242.21;;;1.36;88.60
33795;BME280;51430;52.242;21.118;2023-01-30T06:36:46;99227.18;;;1.40;88.31
33795;BME280;51430;52.242;21.118;2023-01-30T06:55:50;99224.27;;;1.64;86.06
33795;BME280;51430;52.242;21.118;2023-01-30T07:09:37;99208.09;;;1.76;84.48
33795;BME280;51430;52.242;21.118;2023-01-30T07:12:31;99204.58;;;1.72;84.20
33795;BME280;51430;52.242;21.118;2023-01-30T07:16:48;99200.53;;;1.64;84.41
33795;BME280;51430;52.242;21.118;2023-01-30T07:19:33;99194.04;;;1.58;84.08
33795;BME280;51430;52.242;21.118;2023-01-30T07:22:22;99188.49;;;1.53;83.90
33795;BME280;51430;52.242;21.118;2023-01-30T07:25:08;99194.58;;;1.49;83.39
33795;BME280;51430;52.242;21.118;2023-01-30T07:27:58;99179.64;;;1.52;83.75
33795;BME280;51430;52.242;21.118;2023-01-30T07:30:26;99183.70;;;1.59;83.51
33795;BME280;51430;52.242;21.118;2023-01-30T07:33:12;99186.36;;;1.54;83.76
33795;BME280;51430;52.242;21.118;2023-01-30T07:35:58;99180.04;;;1.54;84.57
33795;BME280;51430;52.242;21.118;2023-01-30T07:40:37;99171.00;;;1.44;85.10
33795;BME280;51430;52.242;21.118;2023-01-30T07:43:24;99157.95;;;1.29;85.54
33795;BME280;51430;52.242;21.118;2023-01-30T07:46:13;99156.63;;;1.31;86.33
33795;BME280;51430;52.242;21.118;2023-01-30T07:49:00;99150.84;;;1.33;86.49
33795;BME280;51430;52.242;21.118;2023-01-30T07:51:47;99149.27;;;1.25;86.60
33795;BME280;51430;52.242;21.118;2023-01-30T07:54:34;99140.62;;;1.29;87.13
33795;BME280;51430;52.242;21.118;2023-01-30T07:57:32;99133.16;;;1.22;87.25
33795;BME280;51430;52.242;21.118;2023-01-30T08:01:26;99131.02;;;1.11;88.27
33795;BME280;51430;52.242;21.118;2023-01-30T08:05:28;99121.98;;;1.07;89.22
33795;BME280;51430;52.242;21.118;2023-01-30T08:09:25;99120.10;;;0.95;90.55
33795;BME280;51430;52.242;21.118;2023-01-30T08:12:11;99124.48;;;0.85;90.84
33795;BME280;51430;52.242;21.118;2023-01-30T08:14:59;99121.15;;;0.83;91.64
33795;BME280;51430;52.242;21.118;2023-01-30T08:17:55;99121.59;;;0.81;92.01
33795;BME280;51430;52.242;21.118;2023-01-30T08:20:42;99107.35;;;0.81;92.84
33795;BME280;51430;52.242;21.118;2023-01-30T08:24:37;99099.84;;;0.84;93.36
33795;BME280;51430;52.242;21.118;2023-01-30T08:34:41;99093.09;;;0.61;94.35
33795;BME280;51430;52.242;21.118;2023-01-30T08:38:39;99086.27;;;0.60;94.66
33795;BME280;51430;52.242;21.118;2023-01-30T08:41:26;99090.21;;;0.57;94.80
33795;BME280;51430;52.242;21.118;2023-01-30T08:44:14;99093.24;;;0.61;94.76
33795;BME280;51430;52.242;21.118;2023-01-30T08:47:00;99091.02;;;0.58;95.09
33795;BME280;51430;52.242;21.118;2023-01-30T08:49:55;99094.61;;;0.58;95.26
33795;BME280;51430;52.242;21.118;2023-01-30T08:52:56;99090.63;;;0.62;95.30
33795;BME280;51430;52.242;21.118;2023-01-30T08:55:43;99080.98;;;0.48;95.42
33795;BME280;51430;52.242;21.118;2023-01-30T08:58:40;99079.09;;;0.44;95.97
33795;BME280;51430;52.242;21.118;2023-01-30T09:01:29;99074.52;;;0.46;96.13
33795;BME280;51430;52.242;21.118;2023-01-30T09:04:18;99066.80;;;0.56;95.69
33795;BME280;51430;52.242;21.118;2023-01-30T09:07:21;99055.63;;;0.59;95.17
33795;BME280;51430;52.242;21.118;2023-01-30T09:10:08;99053.14;;;0.51;95.20
33795;BME280;51430;52.242;21.118;2023-01-30T09:12:55;99043.41;;;0.54;95.72
33795;BME280;51430;52.242;21.118;2023-01-30T09:15:42;99043.78;;;0.60;95.64
33795;BME280;51430;52.242;21.118;2023-01-30T09:18:29;99037.71;;;0.61;95.51
33795;BME280;51430;52.242;21.118;2023-01-30T09:32:15;99013.59;;;0.75;95.19
33795;BME280;51430;52.242;21.118;2023-01-30T09:35:17;99004.68;;;0.66;95.24
33795;BME280;51430;52.242;21.118;2023-01-30T09:38:04;99007.44;;;0.53;95.92
33795;BME280;51430;52.242;21.118;2023-01-30T09:41:10;99004.36;;;0.59;96.12
33795;BME280;51430;52.242;21.118;2023-01-30T09:44:22;98995.84;;;0.58;95.86
33795;BME280;51430;52.242;21.118;2023-01-30T09:56:55;98979.27;;;0.75;95.62
33795;BME280;51430;52.242;21.118;2023-01-30T10:02:49;98959.29;;;0.85;95.24
33795;BME280;51430;52.242;21.118;2023-01-30T10:05:46;98952.09;;;0.79;95.38
33795;BME280;51430;52.242;21.118;2023-01-30T10:12:09;98949.07;;;0.84;96.45
33795;BME280;51430;52.242;21.118;2023-01-30T10:15:32;98944.58;;;0.90;96.09
33795;BME280;51430;52.242;21.118;2023-01-30T10:21:51;98927.36;;;1.02;96.21
33795;BME280;51430;52.242;21.118;2023-01-30T10:28:24;98918.81;;;1.08;96.25
33795;BME280;51430;52.242;21.118;2023-01-30T10:31:24;98913.64;;;1.05;96.38
33795;BME280;51430;52.242;21.118;2023-01-30T10:35:31;98904.88;;;0.94;97.06
33795;BME280;51430;52.242;21.118;2023-01-30T10:43:22;98901.05;;;0.90;98.19
33795;BME280;51430;52.242;21.118;2023-01-30T10:48:18;98890.64;;;0.92;98.80
33795;BME280;51430;52.242;21.118;2023-01-30T10:51:41;98881.92;;;0.94;98.98
33795;BME280;51430;52.242;21.118;2023-01-30T10:59:18;98876.22;;;1.00;99.25
33795;BME280;51430;52.242;21.118;2023-01-30T11:02:24;98874.02;;;0.99;99.33
33795;BME280;51430;52.242;21.118;2023-01-30T11:05:31;98870.69;;;1.12;99.35
33795;BME280;51430;52.242;21.118;2023-01-30T11:08:26;98872.91;;;1.15;98.91
33795;BME280;51430;52.242;21.118;2023-01-30T11:11:56;98864.67;;;1.15;99.48
33795;BME280;51430;52.242;21.118;2023-01-30T11:15:55;98860.80;;;1.08;99.43
33795;BME280;51430;52.242;21.118;2023-01-30T11:18:48;98856.84;;;1.03;99.55
33795;BME280;51430;52.242;21.118;2023-01-30T11:22:00;98851.36;;;1.11;99.82
33795;BME280;51430;52.242;21.118;2023-01-30T11:24:48;98849.00;;;1.21;99.48
33795;BME280;51430;52.242;21.118;2023-01-30T11:27:36;98842.38;;;1.23;99.30
33795;BME280;51430;52.242;21.118;2023-01-30T11:30:28;98841.95;;;1.29;99.29
33795;BME280;51430;52.242;21.118;2023-01-30T11:33:16;98831.52;;;1.39;99.28
33795;BME280;51430;52.242;21.118;2023-01-30T11:36:05;98826.48;;;1.54;99.03
33795;BME280;51430;52.242;21.118;2023-01-30T11:39:03;98817.63;;;1.66;98.66
33795;BME280;51430;52.242;21.118;2023-01-30T11:42:02;98811.30;;;1.71;98.11
33795;BME280;51430;52.242;21.118;2023-01-30T11:56:53;98798.67;;;2.09;96.06
33795;BME280;51430;52.242;21.118;2023-01-30T12:00:02;98798.14;;;2.14;95.51
33795;BME280;51430;52.242;21.118;2023-01-30T12:03:28;98797.70;;;2.08;95.74
33795;BME280;51430;52.242;21.118;2023-01-30T12:06:21;98791.67;;;1.97;96.41
33795;BME280;51430;52.242;21.118;2023-01-30T12:09:30;98788.22;;;2.00;96.79
33795;BME280;51430;52.242;21.118;2023-01-30T12:15:43;98783.70;;;1.98;96.83
33795;BME280;51430;52.242;21.118;2023-01-30T12:20:24;98779.47;;;1.97;97.06
33795;BME280;51430;52.242;21.118;2023-01-30T12:25:15;98778.17;;;1.89;97.31
33795;BME280;51430;52.242;21.118;2023-01-30T12:33:56;98771.44;;;1.74;98.95
33795;BME280;51430;52.242;21.118;2023-01-30T12:38:02;98760.78;;;1.71;99.32
33795;BME280;51430;52.242;21.118;2023-01-30T12:46:07;98769.55;;;1.79;99.52
33795;BME280;51430;52.242;21.118;2023-01-30T12:49:20;98766.90;;;1.85;99.42
33795;BME280;51430;52.242;21.118;2023-01-30T12:52:40;98763.77;;;1.96;98.69
33795;BME280;51430;52.242;21.118;2023-01-30T13:07:26;98768.02;;;1.97;98.48
33795;BME280;51430;52.242;21.118;2023-01-30T13:19:16;98763.48;;;2.03;99.08
33795;BME280;51430;52.242;21.118;2023-01-30T13:22:51;98764.98;;;2.01;98.64
33795;BME280;51430;52.242;21.118;2023-01-30T13:26:00;98765.36;;;1.98;99.17
33795;BME280;51430;52.242;21.118;2023-01-30T13:29:00;98759.78;;;2.01;99.33
33795;BME280;51430;52.242;21.118;2023-01-30T13:31:53;98752.19;;;2.05;99.33
33795;BME280;51430;52.242;21.118;2023-01-30T13:34:44;98748.73;;;2.10;99.29
33795;BME280;51430;52.242;21.118;2023-01-30T13:37:35;98747.70;;;2.08;99.46
33795;BME280;51430;52.242;21.118;2023-01-30T13:40:27;98747.23;;;2.12;99.49
33795;BME280;51430;52.242;21.118;2023-01-30T13:43:23;98741.88;;;2.12;99.55
33795;BME280;51430;52.242;21.118;2023-01-30T13:46:51;98744.02;;;2.19;99.37
33795;BME280;51430;52.242;21.118;2023-01-30T13:56:52;98740.53;;;2.12;100.00
33795;BME280;51430;52.242;21.118;2023-01-30T14:00:29;98738.91;;;2.18;100.00
33795;BME280;51430;52.242;21.118;2023-01-30T14:03:25;98742.86;;;2.21;100.00
33795;BME280;51430;52.242;21.118;2023-01-30T14:06:31;98746.56;;;2.22;100.00
33795;BME280;51430;52.242;21.118;2023-01-30T14:09:25;98752.04;;;2.25;100.00
33795;BME280;51430;52.242;21.118;2023-01-30T14:12:21;98753.57;;;2.30;100.00
33795;BME280;51430;52.242;21.118;2023-01-30T14:18:21;98762.59;;;2.34;99.68
33795;BME280;51430;52.242;21.118;2023-01-30T14:21:20;98769.52;;;2.38;99.40
33795;BME280;51430;52.242;21.118;2023-01-30T14:30:51;98765.30;;;2.39;99.24
33795;BME280;51430;52.242;21.118;2023-01-30T14:33:49;98768.98;;;2.36;99.09
33795;BME280;51430;52.242;21.118;2023-01-30T14:36:45;98772.16;;;2.42;99.07
33795;BME280;51430;52.242;21.118;2023-01-30T14:39:39;98772.68;;;2.45;98.87
33795;BME280;51430;52.242;21.118;2023-01-30T14:45:15;98780.73;;;2.57;98.63
33795;BME280;51430;52.242;21.118;2023-01-30T14:49:24;98783.12;;;2.50;98.71
33795;BME280;51430;52.242;21.118;2023-01-30T14:53:24;98777.18;;;2.52;98.71
33795;BME280;51430;52.242;21.118;2023-01-30T14:57:26;98776.02;;;2.48;98.75
33795;BME280;51430;52.242;21.118;2023-01-30T15:02:31;98776.64;;;2.54;99.08
33795;BME280;51430;52.242;21.118;2023-01-30T15:06:09;98775.73;;;2.53;99.12
33795;BME280;51430;52.242;21.118;2023-01-30T15:14:27;98780.82;;;2.51;99.29
33795;BME280;51430;52.242;21.118;2023-01-30T15:17:26;98779.08;;;2.44;99.43
33795;BME280;51430;52.242;21.118;2023-01-30T15:24:32;98784.26;;;2.51;99.35
33795;BME280;51430;52.242;21.118;2023-01-30T15:29:01;98781.90;;;2.58;99.26
33795;BME280;51430;52.242;21.118;2023-01-30T15:33:21;98787.16;;;2.61;99.00
33795;BME280;51430;52.242;21.118;2023-01-30T15:50:35;98802.38;;;2.80;97.42
33795;BME280;51430;52.242;21.118;2023-01-30T15:53:55;98803.39;;;2.80;97.26
33795;BME280;51430;52.242;21.118;2023-01-30T16:08:27;98816.56;;;3.01;96.37
33795;BME280;51430;52.242;21.118;2023-01-30T16:27:16;98819.20;;;3.10;95.48
33795;BME280;51430;52.242;21.118;2023-01-30T16:40:48;98813.13;;;3.32;94.18
33795;BME280;51430;52.242;21.118;2023-01-30T16:43:44;98816.30;;;3.31;93.85
33795;BME280;51430;52.242;21.118;2023-01-30T16:57:03;98837.02;;;3.11;95.30
33795;BME280;51430;52.242;21.118;2023-01-30T17:01:38;98838.00;;;3.17;94.87
33795;BME280;51430;52.242;21.118;2023-01-30T17:04:42;98827.87;;;3.14;94.89
33795;BME280;51430;52.242;21.118;2023-01-30T17:18:49;98823.93;;;3.47;93.67
33795;BME280;51430;52.242;21.118;2023-01-30T17:21:49;98824.52;;;3.39;93.62
33795;BME280;51430;52.242;21.118;2023-01-30T17:30:40;98830.52;;;3.20;95.52
33795;BME280;51430;52.242;21.118;2023-01-30T17:34:51;98833.50;;;3.22;95.60
33795;BME280;51430;52.242;21.118;2023-01-30T17:38:23;98837.27;;;3.15;95.86
33795;BME280;51430;52.242;21.118;2023-01-30T17:52:42;98841.16;;;3.57;93.54
33795;BME280;51430;52.242;21.118;2023-01-30T18:47:44;98865.86;;;3.98;91.17
33795;BME280;51430;52.242;21.118;2023-01-30T18:50:47;98860.13;;;3.80;91.21
33795;BME280;51430;52.242;21.118;2023-01-30T18:54:21;98859.64;;;3.80;91.32
33795;BME280;51430;52.242;21.118;2023-01-30T19:12:44;98860.20;;;3.93;90.98
33795;BME280;51430;52.242;21.118;2023-01-30T19:16:02;98867.14;;;3.83;91.11
33795;BME280;51430;52.242;21.118;2023-01-30T19:19:37;98869.01;;;3.76;91.69
33795;BME280;51430;52.242;21.118;2023-01-30T19:38:52;98867.52;;;3.97;91.30
33795;BME280;51430;52.242;21.118;2023-01-30T19:41:53;98872.31;;;3.81;91.63
33795;BME280;51430;52.242;21.118;2023-01-30T19:45:33;98874.29;;;3.72;92.44
33795;BME280;51430;52.242;21.118;2023-01-30T19:49:05;98870.26;;;3.62;93.07
33795;BME280;51430;52.242;21.118;2023-01-30T20:03:57;98876.02;;;3.84;93.20
33795;BME280;51430;52.242;21.118;2023-01-30T20:06:58;98874.35;;;3.79;93.59
33795;BME280;51430;52.242;21.118;2023-01-30T20:35:09;98884.27;;;3.80;93.97
33795;BME280;51430;52.242;21.118;2023-01-30T21:03:11;98927.91;;;3.79;93.97
33795;BME280;51430;52.242;21.118;2023-01-30T22:13:40;98984.02;;;3.53;94.24
33795;BME280;51430;52.242;21.118;2023-01-30T22:16:57;98981.84;;;3.40;94.25
33795;BME280;51430;52.242;21.118;2023-01-30T22:31:15;98998.23;;;3.42;94.14
33795;BME280;51430;52.242;21.118;2023-01-30T22:34:10;99006.02;;;3.44;94.14
33795;BME280;51430;52.242;21.118;2023-01-30T22:38:05;99012.10;;;3.36;94.20
